Bay Port, New York
Current Conditions -  °F | °C
As of 5:56 PM on Friday 19 Dec 2014 (Local Time) from KISP Reporting Station
Overcast Overcast  
Wind Chill: -1°   Ceiling: 3600
Heat Index:   Visibility: 10mi
Dew Point: -6°   Wind: 8mph
Humidity: 54%   Direction: 330°NNW
Pressure: 30.07"   Gusts: NA
Location:  40.746°N, 73.0539°W
Report Text: KISP 192256Z 33007KT 10SM OVC036 03/M06 A3007 RMK AO2 SLP182 T00281056
Loading
Personal Weather Stations






























Interactive Weather Map New forecast layout! Learn more

10-Day Weather Forecast

Advertisements
Track Severe Weather on mobile